createdAt,value
2023-03-19T00:00:34.438Z,99571.41
2023-03-19T00:03:01.803Z,99573.00
2023-03-19T00:05:29.178Z,99575.63
2023-03-19T00:07:56.432Z,99581.53
2023-03-19T00:10:23.741Z,99572.44
2023-03-19T00:12:50.946Z,99579.09
2023-03-19T00:15:18.293Z,99572.19
2023-03-19T00:17:45.555Z,99581.75
2023-03-19T00:20:13.268Z,99574.78
2023-03-19T00:22:40.576Z,99575.88
2023-03-19T00:25:08.682Z,99581.16
2023-03-19T00:27:37.627Z,99588.38
2023-03-19T00:30:06.711Z,99597.13
2023-03-19T00:32:34.560Z,99597.13
2023-03-19T00:35:01.794Z,99585.69
2023-03-19T00:37:29.753Z,99599.28
2023-03-19T00:39:57.231Z,99593.69
2023-03-19T00:42:24.553Z,99594.47
2023-03-19T00:44:51.988Z,99608.09
2023-03-19T00:47:19.277Z,99613.63
2023-03-19T00:49:46.477Z,99614.44
2023-03-19T00:52:13.744Z,99620.00
2023-03-19T00:54:41.758Z,99619.19
2023-03-19T00:57:09.037Z,99625.03
2023-03-19T00:59:36.424Z,99636.22
2023-03-19T01:02:04.162Z,99634.84
2023-03-19T01:04:31.845Z,99645.00
2023-03-19T01:09:27.129Z,99644.19
2023-03-19T01:11:54.717Z,99645.53
2023-03-19T01:14:22.185Z,99652.47
2023-03-19T01:16:49.509Z,99657.53
2023-03-19T01:19:16.978Z,99654.34
2023-03-19T01:21:46.777Z,99649.03
2023-03-19T01:24:18.317Z,99656.75
2023-03-19T01:26:51.130Z,99653.03
2023-03-19T01:29:29.243Z,99656.75
2023-03-19T01:31:59.427Z,99652.25
2023-03-19T01:34:32.372Z,99654.91
2023-03-19T01:37:08.066Z,99653.31
2023-03-19T01:39:35.676Z,99661.56
2023-03-19T01:42:07.688Z,99660.50
2023-03-19T01:44:39.993Z,99665.00
2023-03-19T01:47:38.661Z,99664.47
2023-03-19T01:50:26.145Z,99668.97
2023-03-19T01:53:15.604Z,99669.78
2023-03-19T01:55:52.945Z,99675.38
2023-03-19T01:58:33.508Z,99674.56
2023-03-19T02:01:32.481Z,99679.88
2023-03-19T02:04:00.132Z,99687.59
2023-03-19T02:06:31.208Z,99685.47
2023-03-19T02:09:00.160Z,99680.13
2023-03-19T02:11:28.240Z,99681.75
2023-03-19T02:13:56.165Z,99682.00
2023-03-19T02:16:23.743Z,99683.31
2023-03-19T02:18:52.227Z,99681.44
2023-03-19T02:21:20.516Z,99682.75
2023-03-19T02:23:51.753Z,99685.19
2023-03-19T02:26:24.517Z,99678.53
2023-03-19T02:28:53.912Z,99677.53
2023-03-19T02:31:30.686Z,99686.94
2023-03-19T02:34:02.493Z,99679.88
2023-03-19T02:36:33.026Z,99682.41
2023-03-19T02:39:02.842Z,99690.19
2023-03-19T02:41:32.193Z,99686.47
2023-03-19T02:44:01.199Z,99689.31
2023-03-19T02:46:28.630Z,99687.50
2023-03-19T02:48:56.069Z,99697.63
2023-03-19T02:51:24.935Z,99694.53
2023-03-19T02:53:52.142Z,99700.16
2023-03-19T02:56:19.432Z,99694.19
2023-03-19T02:58:46.878Z,99706.06
2023-03-19T03:01:14.763Z,99699.91
2023-03-19T03:03:42.059Z,99710.03
2023-03-19T03:06:10.011Z,99702.31
2023-03-19T03:08:37.291Z,99709.53
2023-03-19T03:11:04.569Z,99718.13
2023-03-19T03:13:31.907Z,99713.78
2023-03-19T03:15:59.395Z,99717.09
2023-03-19T03:18:27.323Z,99722.25
2023-03-19T03:20:54.742Z,99720.16
2023-03-19T03:23:22.309Z,99723.41
2023-03-19T03:25:52.550Z,99715.56
2023-03-19T03:28:19.896Z,99723.56
2023-03-19T03:30:47.291Z,99728.66
2023-03-19T03:33:14.496Z,99728.22
2023-03-19T03:35:41.807Z,99733.03
2023-03-19T03:38:09.108Z,99736.09
2023-03-19T03:40:37.131Z,99729.00
2023-03-19T03:43:04.541Z,99738.88
2023-03-19T03:45:34.489Z,99737.47
2023-03-19T03:48:02.263Z,99743.66
2023-03-19T03:50:30.174Z,99746.22
2023-03-19T03:53:01.972Z,99744.78
2023-03-19T03:55:29.481Z,99745.91
2023-03-19T03:57:56.861Z,99742.28
2023-03-19T04:00:24.452Z,99747.88
2023-03-19T04:02:51.951Z,99754.97
2023-03-19T04:05:19.683Z,99760.28
2023-03-19T04:07:47.204Z,99754.91
2023-03-19T04:10:15.676Z,99754.06
2023-03-19T04:12:42.925Z,99754.81
2023-03-19T04:15:11.429Z,99760.66
2023-03-19T04:17:42.064Z,99764.81
2023-03-19T04:20:11.413Z,99758.75
2023-03-19T04:22:38.935Z,99775.81
2023-03-19T04:25:08.534Z,99770.50
2023-03-19T04:27:37.659Z,99768.72
2023-03-19T04:30:05.457Z,99777.03
2023-03-19T04:32:34.028Z,99769.66
2023-03-19T04:35:01.516Z,99768.53
2023-03-19T04:37:29.815Z,99772.91
2023-03-19T04:39:57.449Z,99776.03
2023-03-19T04:42:25.104Z,99778.41
2023-03-19T04:45:12.576Z,99779.53
2023-03-19T04:47:40.980Z,99774.03
2023-03-19T04:50:08.856Z,99778.69
2023-03-19T04:52:37.644Z,99783.72
2023-03-19T04:55:06.647Z,99788.28
2023-03-19T04:57:44.805Z,99781.91
2023-03-19T05:00:12.579Z,99785.31
2023-03-19T05:02:41.655Z,99785.97
2023-03-19T05:05:10.181Z,99784.72
2023-03-19T05:07:38.415Z,99787.31
2023-03-19T05:10:06.952Z,99792.38
2023-03-19T05:12:34.968Z,99791.97
2023-03-19T05:15:02.268Z,99783.88
2023-03-19T05:17:33.203Z,99783.38
2023-03-19T05:20:09.814Z,99789.91
2023-03-19T05:22:38.916Z,99785.75
2023-03-19T05:25:07.232Z,99785.25
2023-03-19T05:27:34.683Z,99794.06
2023-03-19T05:30:06.510Z,99793.78
2023-03-19T05:32:41.026Z,99790.97
2023-03-19T05:35:14.853Z,99791.94
2023-03-19T05:37:43.007Z,99788.06
2023-03-19T05:40:10.625Z,99790.94
2023-03-19T05:42:38.405Z,99794.00
2023-03-19T05:45:06.807Z,99789.06
2023-03-19T05:47:45.104Z,99789.25
2023-03-19T05:50:12.645Z,99795.44
2023-03-19T05:52:45.049Z,99796.81
2023-03-19T05:55:12.480Z,99793.31
2023-03-19T05:57:46.213Z,99795.66
2023-03-19T06:00:25.563Z,99790.97
2023-03-19T06:02:53.386Z,99795.78
2023-03-19T06:05:48.992Z,99794.56
2023-03-19T06:08:31.245Z,99796.63
2023-03-19T06:11:09.421Z,99790.66
2023-03-19T06:13:37.713Z,99785.53
2023-03-19T06:16:07.682Z,99782.00
2023-03-19T06:18:41.902Z,99780.25
2023-03-19T06:21:12.236Z,99792.53
2023-03-19T06:23:39.613Z,99782.75
2023-03-19T06:26:08.307Z,99775.28
2023-03-19T06:28:55.724Z,99788.31
2023-03-19T06:31:24.172Z,99779.97
2023-03-19T06:33:55.116Z,99778.97
2023-03-19T06:36:26.391Z,99778.38
2023-03-19T06:38:53.984Z,99784.63
2023-03-19T06:41:21.604Z,99783.56
2023-03-19T06:43:50.876Z,99777.56
2023-03-19T06:46:18.228Z,99770.56
2023-03-19T06:48:45.573Z,99774.84
2023-03-19T06:51:12.837Z,99768.31
2023-03-19T06:53:40.392Z,99772.22
2023-03-19T06:56:07.868Z,99770.94
2023-03-19T06:58:36.559Z,99759.97
2023-03-19T07:01:04.056Z,99764.44
2023-03-19T07:03:31.671Z,99761.06
2023-03-19T07:05:59.023Z,99752.22
2023-03-19T07:08:30.068Z,99753.91
2023-03-19T07:10:57.638Z,99752.41
2023-03-19T07:13:24.849Z,99755.84
2023-03-19T07:15:52.177Z,99754.44
2023-03-19T07:18:19.404Z,99756.44
2023-03-19T07:20:46.665Z,99752.09
2023-03-19T07:23:14.003Z,99757.22
2023-03-19T07:25:41.686Z,99754.09
2023-03-19T07:28:08.952Z,99751.97
2023-03-19T07:30:36.441Z,99747.72
2023-03-19T07:33:03.850Z,99749.06
2023-03-19T07:35:31.297Z,99749.75
2023-03-19T07:37:59.738Z,99744.38
2023-03-19T07:40:27.370Z,99743.25
2023-03-19T07:42:54.694Z,99736.22
2023-03-19T07:45:23.304Z,99745.50
2023-03-19T07:47:51.807Z,99744.13
2023-03-19T07:50:19.345Z,99740.75
2023-03-19T07:52:48.121Z,99731.31
2023-03-19T07:55:16.031Z,99728.97
2023-03-19T07:57:43.343Z,99719.72
2023-03-19T08:00:10.997Z,99718.66
2023-03-19T08:02:43.037Z,99728.00
2023-03-19T08:05:10.757Z,99708.38
2023-03-19T08:07:38.140Z,99697.75
2023-03-19T08:10:05.899Z,99697.38
2023-03-19T08:12:34.868Z,99704.19
2023-03-19T08:15:02.132Z,99697.28
2023-03-19T08:17:30.339Z,99698.91
2023-03-19T08:19:57.608Z,99682.41
2023-03-19T08:22:24.887Z,99684.88
2023-03-19T08:24:52.208Z,99680.81
2023-03-19T08:27:19.483Z,99670.47
2023-03-19T08:29:46.944Z,99676.25
2023-03-19T08:32:14.300Z,99670.69
2023-03-19T08:34:41.786Z,99673.47
2023-03-19T08:37:09.035Z,99676.84
2023-03-19T08:39:36.370Z,99674.22
2023-03-19T08:42:03.717Z,99662.03
2023-03-19T08:44:30.921Z,99666.63
2023-03-19T08:46:58.206Z,99664.34
2023-03-19T08:49:26.425Z,99655.88
2023-03-19T08:51:53.638Z,99652.78
2023-03-19T08:54:22.912Z,99646.94
2023-03-19T08:56:50.334Z,99647.91
2023-03-19T08:59:17.637Z,99644.84
2023-03-19T09:01:44.839Z,99641.94
2023-03-19T09:04:12.194Z,99632.19
2023-03-19T09:06:39.505Z,99634.13
2023-03-19T09:09:06.767Z,99636.38
2023-03-19T09:11:34.096Z,99639.25
2023-03-19T09:14:01.474Z,99636.19
2023-03-19T09:16:28.847Z,99630.25
2023-03-19T09:18:59.225Z,99622.34
2023-03-19T09:21:26.971Z,99630.63
2023-03-19T09:23:54.358Z,99624.84
2023-03-19T09:26:21.515Z,99614.69
2023-03-19T09:28:48.879Z,99616.25
2023-03-19T09:31:16.076Z,99606.97
2023-03-19T09:33:43.374Z,99606.41
2023-03-19T09:36:10.645Z,99611.84
2023-03-19T09:38:37.907Z,99606.59
2023-03-19T09:41:11.260Z,99603.66
2023-03-19T09:43:44.673Z,99594.03
2023-03-19T09:46:15.286Z,99592.84
2023-03-19T09:48:51.716Z,99596.25
2023-03-19T09:51:22.770Z,99590.41
2023-03-19T09:53:54.416Z,99600.06
2023-03-19T09:56:21.706Z,99594.72
2023-03-19T09:58:49.125Z,99591.28
2023-03-19T10:01:24.129Z,99584.66
2023-03-19T10:04:09.851Z,99580.59
2023-03-19T10:06:42.918Z,99577.75
2023-03-19T10:09:20.201Z,99573.38
2023-03-19T10:11:56.598Z,99570.09
2023-03-19T10:14:23.759Z,99572.44
2023-03-19T10:16:53.308Z,99560.44
2023-03-19T10:19:29.644Z,99559.66
2023-03-19T10:22:00.348Z,99565.34
2023-03-19T10:24:32.134Z,99561.25
2023-03-19T10:27:06.148Z,99561.25
2023-03-19T10:29:34.776Z,99551.22
2023-03-19T10:32:09.647Z,99546.25
2023-03-19T10:34:38.337Z,99552.31
2023-03-19T10:37:08.293Z,99545.31
2023-03-19T10:39:37.051Z,99548.31
2023-03-19T10:42:10.960Z,99533.81
2023-03-19T10:44:42.053Z,99536.41
2023-03-19T10:47:16.871Z,99539.31
2023-03-19T10:49:44.107Z,99531.91
2023-03-19T10:52:32.897Z,99529.00
2023-03-19T10:55:07.516Z,99527.53
2023-03-19T10:57:35.243Z,99529.34
2023-03-19T11:00:05.908Z,99529.16
2023-03-19T11:02:33.854Z,99514.16
2023-03-19T11:05:09.400Z,99522.28
2023-03-19T11:07:37.476Z,99526.59
2023-03-19T11:10:05.298Z,99519.91
2023-03-19T11:12:34.292Z,99515.94
2023-03-19T11:15:07.643Z,99516.44
2023-03-19T11:17:45.725Z,99502.31
2023-03-19T11:20:16.326Z,99502.03
2023-03-19T11:22:43.563Z,99496.00
2023-03-19T11:25:13.732Z,99488.34
2023-03-19T11:27:41.708Z,99479.38
2023-03-19T11:30:19.803Z,99486.72
2023-03-19T11:32:50.221Z,99479.84
2023-03-19T11:35:33.300Z,99480.34
2023-03-19T11:38:02.260Z,99470.50
2023-03-19T11:40:47.499Z,99474.97
2023-03-19T11:43:38.652Z,99475.53
2023-03-19T11:46:20.203Z,99462.63
2023-03-19T11:48:50.514Z,99459.16
2023-03-19T11:51:21.439Z,99462.44
2023-03-19T11:54:08.092Z,99449.31
2023-03-19T11:56:41.791Z,99447.53
2023-03-19T11:59:27.701Z,99443.47
2023-03-19T12:02:04.415Z,99434.78
2023-03-19T12:04:50.454Z,99439.56
2023-03-19T12:07:33.147Z,99435.03
2023-03-19T12:10:19.111Z,99436.09
2023-03-19T12:13:06.523Z,99432.81
2023-03-19T12:15:54.057Z,99423.84
2023-03-19T12:18:30.457Z,99422.31
2023-03-19T12:21:10.604Z,99417.53
2023-03-19T12:23:41.549Z,99410.16
2023-03-19T12:26:10.354Z,99409.66
2023-03-19T12:28:37.618Z,99409.28
2023-03-19T12:31:20.320Z,99406.50
2023-03-19T12:33:53.661Z,99401.25
2023-03-19T12:36:24.141Z,99411.91
2023-03-19T12:38:58.891Z,99405.66
2023-03-19T12:41:29.895Z,99408.84
2023-03-19T12:44:06.679Z,99404.09
2023-03-19T12:46:46.325Z,99385.66
2023-03-19T12:49:17.199Z,99390.84
2023-03-19T12:51:46.987Z,99382.34
2023-03-19T12:54:14.310Z,99382.16
2023-03-19T12:56:49.500Z,99382.03
2023-03-19T12:59:29.223Z,99383.53
2023-03-19T13:02:20.099Z,99392.94
2023-03-19T13:04:51.947Z,99381.97
2023-03-19T13:07:25.011Z,99384.53
2023-03-19T13:10:04.982Z,99380.06
2023-03-19T13:12:34.550Z,99376.69
2023-03-19T13:15:13.188Z,99364.09
2023-03-19T13:17:41.778Z,99382.34
2023-03-19T13:20:20.901Z,99373.19
2023-03-19T13:22:53.959Z,99374.22
2023-03-19T13:25:24.541Z,99363.84
2023-03-19T13:27:55.643Z,99363.66
2023-03-19T13:30:24.007Z,99364.91
2023-03-19T13:32:54.729Z,99355.13
2023-03-19T13:35:25.144Z,99371.44
2023-03-19T13:37:56.693Z,99357.84
2023-03-19T13:40:37.955Z,99346.91
2023-03-19T13:43:06.590Z,99344.75
2023-03-19T13:45:38.516Z,99346.13
2023-03-19T13:48:25.060Z,99342.94
2023-03-19T13:51:11.047Z,99340.28
2023-03-19T13:53:40.887Z,99343.19
2023-03-19T13:56:26.580Z,99327.22
2023-03-19T13:59:15.348Z,99342.59
2023-03-19T14:01:47.746Z,99338.81
2023-03-19T14:04:44.651Z,99324.44
2023-03-19T14:07:19.397Z,99326.03
2023-03-19T14:10:07.539Z,99339.22
2023-03-19T14:12:39.375Z,99337.63
2023-03-19T14:15:10.166Z,99335.13
2023-03-19T14:17:37.387Z,99333.97
2023-03-19T14:20:12.534Z,99330.31
2023-03-19T14:22:40.229Z,99349.78
2023-03-19T14:25:14.471Z,99324.84
2023-03-19T14:27:49.617Z,99320.38
2023-03-19T14:30:35.947Z,99326.25
2023-03-19T14:33:06.364Z,99324.31
2023-03-19T14:35:44.169Z,99315.75
2023-03-19T14:38:16.416Z,99325.47
2023-03-19T14:40:45.657Z,99311.22
2023-03-19T14:43:34.934Z,99309.66
2023-03-19T14:46:05.794Z,99328.44
2023-03-19T14:48:51.805Z,99311.22
2023-03-19T14:51:31.564Z,99308.25
2023-03-19T14:53:58.772Z,99306.56
2023-03-19T14:56:27.620Z,99326.41
2023-03-19T14:58:56.181Z,99303.63
2023-03-19T15:01:29.839Z,99304.97
2023-03-19T15:04:10.886Z,99313.50
2023-03-19T15:07:35.407Z,99298.44
2023-03-19T15:10:16.271Z,99303.28
2023-03-19T15:12:56.292Z,99295.59
2023-03-19T15:15:42.565Z,99286.16
2023-03-19T15:18:11.386Z,99286.41
2023-03-19T15:20:51.208Z,99273.53
2023-03-19T15:23:26.845Z,99289.06
2023-03-19T15:26:03.341Z,99283.38
2023-03-19T15:28:44.770Z,99260.19
2023-03-19T15:31:31.119Z,99264.66
2023-03-19T15:34:17.322Z,99270.47
2023-03-19T15:36:45.380Z,99262.03
2023-03-19T15:39:17.615Z,99254.94
2023-03-19T15:41:46.729Z,99246.97
2023-03-19T15:44:17.923Z,99270.88
2023-03-19T15:46:46.456Z,99266.81
2023-03-19T15:49:32.335Z,99268.97
2023-03-19T15:52:03.118Z,99257.91
2023-03-19T15:54:30.697Z,99260.22
2023-03-19T15:56:58.145Z,99269.00
2023-03-19T15:59:30.203Z,99266.34
2023-03-19T16:02:01.708Z,99261.44
2023-03-19T16:04:45.656Z,99270.66
2023-03-19T16:07:33.310Z,99260.59
2023-03-19T16:10:00.643Z,99268.25
2023-03-19T16:12:37.784Z,99252.78
2023-03-19T16:15:40.419Z,99256.53
2023-03-19T16:18:17.116Z,99258.38
2023-03-19T16:20:46.096Z,99263.69
2023-03-19T16:23:17.509Z,99257.34
2023-03-19T16:25:45.239Z,99252.81
2023-03-19T16:28:21.014Z,99247.47
2023-03-19T16:30:49.633Z,99254.44
2023-03-19T16:33:17.422Z,99250.47
2023-03-19T16:35:47.704Z,99249.97
2023-03-19T16:38:22.597Z,99255.13
2023-03-19T16:40:53.565Z,99252.25
2023-03-19T16:43:24.181Z,99247.53
2023-03-19T16:45:52.766Z,99247.88
2023-03-19T16:48:20.324Z,99246.56
2023-03-19T16:50:47.790Z,99250.00
2023-03-19T16:53:21.770Z,99254.59
2023-03-19T16:55:49.128Z,99240.47
2023-03-19T16:58:29.793Z,99225.31
2023-03-19T17:00:57.333Z,99235.69
2023-03-19T17:03:27.337Z,99240.16
2023-03-19T17:05:54.758Z,99231.44
2023-03-19T17:08:23.650Z,99235.47
2023-03-19T17:10:52.416Z,99226.03
2023-03-19T17:13:30.298Z,99228.31
2023-03-19T17:15:58.833Z,99224.25
2023-03-19T17:18:28.317Z,99211.91
2023-03-19T17:21:16.004Z,99212.47
2023-03-19T17:23:43.807Z,99212.41
2023-03-19T17:26:16.112Z,99202.91
2023-03-19T17:28:43.600Z,99199.16
2023-03-19T17:31:26.233Z,99185.91
2023-03-19T17:33:57.541Z,99184.25
2023-03-19T17:36:24.815Z,99178.38
2023-03-19T17:38:54.828Z,99160.63
2023-03-19T17:41:22.669Z,99159.50
2023-03-19T17:43:50.119Z,99149.16
2023-03-19T17:46:27.819Z,99162.06
2023-03-19T17:48:55.940Z,99161.69
2023-03-19T17:51:24.147Z,99158.75
2023-03-19T17:53:53.141Z,99159.78
2023-03-19T17:56:21.894Z,99146.38
2023-03-19T17:58:50.463Z,99151.84
2023-03-19T18:01:26.352Z,99156.16
2023-03-19T18:03:55.588Z,99133.22
2023-03-19T18:06:24.546Z,99137.84
2023-03-19T18:08:51.846Z,99132.72
2023-03-19T18:11:19.134Z,99130.19
2023-03-19T18:13:47.090Z,99136.28
2023-03-19T18:16:14.461Z,99130.00
2023-03-19T18:18:44.020Z,99139.13
2023-03-19T18:21:15.051Z,99129.91
2023-03-19T18:23:43.016Z,99126.84
2023-03-19T18:26:12.139Z,99116.69
2023-03-19T18:28:39.454Z,99120.44
2023-03-19T18:31:13.915Z,99125.09
2023-03-19T18:33:41.298Z,99119.09
2023-03-19T18:36:08.799Z,99108.38
2023-03-19T18:38:36.051Z,99101.03
2023-03-19T18:41:03.372Z,99103.19
2023-03-19T18:43:31.089Z,99097.47
2023-03-19T18:45:58.358Z,99101.34
2023-03-19T18:48:31.702Z,99102.44
2023-03-19T18:50:59.201Z,99090.88
2023-03-19T18:53:26.858Z,99091.31
2023-03-19T18:55:54.050Z,99089.09
2023-03-19T18:58:23.066Z,99093.31
2023-03-19T19:00:51.380Z,99081.88
2023-03-19T19:03:21.546Z,99072.84
2023-03-19T19:05:50.253Z,99082.28
2023-03-19T19:08:19.069Z,99072.91
2023-03-19T19:10:52.161Z,99063.38
2023-03-19T19:13:21.429Z,99066.88
2023-03-19T19:15:48.923Z,99056.53
2023-03-19T19:18:20.879Z,99057.22
2023-03-19T19:20:49.158Z,99048.78
2023-03-19T19:23:16.806Z,99052.53
2023-03-19T19:25:45.749Z,99051.94
2023-03-19T19:28:22.648Z,99032.78
2023-03-19T19:30:50.169Z,99029.38
2023-03-19T19:33:18.681Z,99025.34
2023-03-19T19:35:46.518Z,99015.66
2023-03-19T19:38:14.032Z,99027.78
2023-03-19T19:40:44.423Z,99018.94
2023-03-19T19:43:14.586Z,99014.25
2023-03-19T19:45:43.975Z,99014.53
2023-03-19T19:48:21.916Z,99010.78
2023-03-19T19:50:49.543Z,99014.75
2023-03-19T19:53:17.141Z,99011.84
2023-03-19T19:55:45.032Z,99003.47
2023-03-19T19:58:20.113Z,98992.59
2023-03-19T20:00:56.677Z,98998.56
2023-03-19T20:03:31.661Z,98997.78
2023-03-19T20:05:59.634Z,98994.00
2023-03-19T20:08:27.423Z,98991.91
2023-03-19T20:10:54.719Z,98997.66
2023-03-19T20:13:26.742Z,98993.13
2023-03-19T20:15:56.093Z,98990.25
2023-03-19T20:18:24.816Z,98983.97
2023-03-19T20:20:53.186Z,98978.91
2023-03-19T20:23:21.156Z,98979.69
2023-03-19T20:25:49.144Z,98975.44
2023-03-19T20:28:27.515Z,98977.88
2023-03-19T20:30:55.063Z,98968.03
2023-03-19T20:33:22.771Z,98969.91
2023-03-19T20:35:50.464Z,98962.75
2023-03-19T20:38:17.979Z,98957.16
2023-03-19T20:40:52.727Z,98946.00
2023-03-19T20:43:28.037Z,98941.22
2023-03-19T20:45:59.834Z,98932.22
2023-03-19T20:48:27.601Z,98937.25
2023-03-19T20:50:55.608Z,98937.78
2023-03-19T20:53:23.287Z,98934.84
2023-03-19T20:55:51.300Z,98920.50
2023-03-19T20:58:27.835Z,98918.91
2023-03-19T21:00:56.698Z,98912.03
2023-03-19T21:03:28.441Z,98913.88
2023-03-19T21:06:00.267Z,98913.63
2023-03-19T21:08:44.694Z,98913.88
2023-03-19T21:11:22.535Z,98905.38
2023-03-19T21:13:53.401Z,98904.59
2023-03-19T21:16:22.299Z,98899.28
2023-03-19T21:18:49.813Z,98893.44
2023-03-19T21:21:17.500Z,98894.25
2023-03-19T21:23:51.669Z,98895.03
2023-03-19T21:26:20.210Z,98894.00
2023-03-19T21:28:48.796Z,98891.88
2023-03-19T21:31:20.884Z,98885.22
2023-03-19T21:33:49.554Z,98874.88
2023-03-19T21:36:17.211Z,98874.06
2023-03-19T21:38:44.769Z,98868.25
2023-03-19T21:41:23.980Z,98860.00
2023-03-19T21:43:55.387Z,98866.13
2023-03-19T21:46:25.302Z,98869.81
2023-03-19T21:48:53.695Z,98859.22
2023-03-19T21:51:21.359Z,98860.78
2023-03-19T21:53:48.671Z,98859.75
2023-03-19T21:56:32.781Z,98854.97
2023-03-19T21:59:01.460Z,98849.94
2023-03-19T22:01:28.696Z,98851.25
2023-03-19T22:03:57.265Z,98844.31
2023-03-19T22:06:24.797Z,98844.09
2023-03-19T22:08:54.370Z,98831.59
2023-03-19T22:11:31.823Z,98832.16
2023-03-19T22:14:03.284Z,98836.38
2023-03-19T22:16:31.747Z,98831.88
2023-03-19T22:18:59.028Z,98830.81
2023-03-19T22:21:26.310Z,98821.78
2023-03-19T22:23:53.918Z,98827.84
2023-03-19T22:26:30.287Z,98820.16
2023-03-19T22:28:59.192Z,98813.25
2023-03-19T22:31:26.458Z,98815.66
2023-03-19T22:33:53.941Z,98811.09
2023-03-19T22:36:21.208Z,98813.78
2023-03-19T22:38:49.611Z,98816.97
2023-03-19T22:41:18.863Z,98810.88
2023-03-19T22:43:46.669Z,98807.91
2023-03-19T22:46:15.642Z,98812.69
2023-03-19T22:48:45.184Z,98808.44
2023-03-19T22:51:17.511Z,98806.56
2023-03-19T22:53:45.789Z,98806.31
2023-03-19T22:56:14.099Z,98801.84
2023-03-19T22:58:41.902Z,98795.44
2023-03-19T23:01:21.605Z,98792.78
2023-03-19T23:03:49.682Z,98792.78
2023-03-19T23:06:29.210Z,98789.03
2023-03-19T23:08:57.386Z,98784.28
2023-03-19T23:11:25.470Z,98789.03
2023-03-19T23:13:54.624Z,98784.00
2023-03-19T23:16:24.883Z,98778.63
2023-03-19T23:18:52.765Z,98775.19
2023-03-19T23:21:21.224Z,98777.53
2023-03-19T23:23:48.537Z,98777.03
2023-03-19T23:26:30.106Z,98777.03
2023-03-19T23:29:01.308Z,98770.66
2023-03-19T23:31:28.990Z,98765.34
2023-03-19T23:33:57.842Z,98770.94
2023-03-19T23:36:25.075Z,98767.78
2023-03-19T23:38:52.592Z,98768.50
2023-03-19T23:41:24.816Z,98767.72
2023-03-19T23:43:53.329Z,98767.94
2023-03-19T23:46:21.022Z,98763.44
2023-03-19T23:48:48.333Z,98767.66
2023-03-19T23:51:16.398Z,98755.94
2023-03-19T23:53:43.702Z,98754.25
2023-03-19T23:56:22.030Z,98758.75
2023-03-19T23:58:50.874Z,98748.66
